Old Moulton, Texas
Current Conditions -  °F | °C
As of 10:35 AM on Thursday 29 Jan 2015 (Local Time) from K3T5 Reporting Station
Overcast Overcast  
Wind Chill: 66°   Ceiling: 1000
Heat Index: 66°   Visibility: 10mi
Dew Point: 62°   Wind: 0mph
Humidity: 89%   Direction: NA
Pressure: 30.26"   Gusts: NA
Location:  29.5667°N, 97.0723°W
Report Text: K3T5 291635Z AUTO 00000KT 10SM OVC010 19/17 A3026 RMK AO2 T01880169
Loading
Personal Weather Stations






























Interactive Weather Map New forecast layout! Learn more

10-Day Weather Forecast

Advertisements
Track Severe Weather on mobile